KEKN/EKN METAR and TAF weather

Enter ICAO airport designator
Station Type Date Time Source
KEKN METAR 2020/08/05 15:51 UTC NOAA

KEKN 051551Z AUTO 25007KT 10SM FEW038 24/14 A3016 RMK AO2 SLP203 T02440139


Station Type Date Time Source
KEKN Decoded METAR 2020/08/05 15:51 UTC NOAA

JENNINGS RANDOLPH FIELD, WV, United States (KEKN) 38-53N 079-51W 603M
Aug 05, 2020 - 11:51 AM EDT / 2020.08.05 1551 UTC
Wind: from the WSW (250 degrees) at 8 MPH (7 KT):0
Visibility: 10 mile(s):0
Sky conditions: mostly clear
Temperature: 75.9 F (24.4 C)
Dew Point: 57.0 F (13.9 C)
Relative Humidity: 51%
Pressure (altimeter): 30.16 in. Hg (1021 hPa)
ob: KEKN 051551Z AUTO 25007KT 10SM FEW038 24/14 A3016 RMK AO2 SLP203 T02440139
cycle: 16

Station Type Date Time Source
KEKN TAF 2020/08/05 15:34 UTC NOAA

TAF
AMD KEKN 051431Z 0515/0612 00000KT P6SM FEW016 SCT026 BKN035
FM051600 30004KT P6SM SCT035
FM060700 00000KT 3SM BR SCT035
FM060900 00000KT 2SM BR SCT002 SCT030

Example: see airport list